sensor_id;sensor_type;location;lat;lon;timestamp;pressure;altitude;pressure_sealevel;temperature;humidity
74975;BME280;68459;50.836;19.138;2023-07-29T00:01:20;97993.25;;;16.81;77.38
74975;BME280;68459;50.836;19.138;2023-07-29T00:04:24;97997.38;;;16.73;77.68
74975;BME280;68459;50.836;19.138;2023-07-29T00:07:29;97998.78;;;16.66;77.87
74975;BME280;68459;50.836;19.138;2023-07-29T00:10:36;97988.44;;;16.58;78.15
74975;BME280;68459;50.836;19.138;2023-07-29T00:13:40;97996.06;;;16.56;77.89
74975;BME280;68459;50.836;19.138;2023-07-29T00:16:44;97991.97;;;16.53;77.65
74975;BME280;68459;50.836;19.138;2023-07-29T00:19:47;97996.66;;;16.48;78.08
74975;BME280;68459;50.836;19.138;2023-07-29T00:22:52;97998.00;;;16.45;78.01
74975;BME280;68459;50.836;19.138;2023-07-29T00:25:57;98003.72;;;16.44;77.82
74975;BME280;68459;50.836;19.138;2023-07-29T00:29:01;98008.63;;;16.47;78.34
74975;BME280;68459;50.836;19.138;2023-07-29T00:32:05;98008.09;;;16.45;77.70
74975;BME280;68459;50.836;19.138;2023-07-29T00:35:09;98001.56;;;16.46;78.05
74975;BME280;68459;50.836;19.138;2023-07-29T00:38:14;98010.25;;;16.48;78.48
74975;BME280;68459;50.836;19.138;2023-07-29T00:41:19;98004.28;;;16.51;77.99
74975;BME280;68459;50.836;19.138;2023-07-29T00:44:24;97989.53;;;16.52;77.81
74975;BME280;68459;50.836;19.138;2023-07-29T00:47:29;98003.97;;;16.52;77.84
74975;BME280;68459;50.836;19.138;2023-07-29T00:50:32;98004.28;;;16.46;77.94
74975;BME280;68459;50.836;19.138;2023-07-29T00:53:38;98004.56;;;16.39;77.66
74975;BME280;68459;50.836;19.138;2023-07-29T00:56:42;98006.47;;;16.38;78.23
74975;BME280;68459;50.836;19.138;2023-07-29T00:59:47;97997.19;;;16.39;78.17
74975;BME280;68459;50.836;19.138;2023-07-29T01:02:52;98003.19;;;16.42;77.81
74975;BME280;68459;50.836;19.138;2023-07-29T01:06:05;98002.66;;;16.39;78.43
74975;BME280;68459;50.836;19.138;2023-07-29T01:09:20;97995.59;;;16.33;78.71
74975;BME280;68459;50.836;19.138;2023-07-29T01:12:35;98001.88;;;16.29;78.80
74975;BME280;68459;50.836;19.138;2023-07-29T01:15:52;97993.75;;;16.24;78.32
74975;BME280;68459;50.836;19.138;2023-07-29T01:19:05;97996.19;;;16.20;78.82
74975;BME280;68459;50.836;19.138;2023-07-29T01:22:10;97993.75;;;16.19;77.97
74975;BME280;68459;50.836;19.138;2023-07-29T01:25:16;98001.09;;;16.18;78.78
74975;BME280;68459;50.836;19.138;2023-07-29T01:28:20;97994.56;;;16.14;78.32
74975;BME280;68459;50.836;19.138;2023-07-29T01:31:31;97991.03;;;16.09;78.70
74975;BME280;68459;50.836;19.138;2023-07-29T01:34:42;97994.00;;;16.12;78.92
74975;BME280;68459;50.836;19.138;2023-07-29T01:37:52;97991.28;;;16.12;78.51
74975;BME280;68459;50.836;19.138;2023-07-29T01:41:00;97994.84;;;16.08;78.53
74975;BME280;68459;50.836;19.138;2023-07-29T01:44:07;98000.31;;;15.97;78.34
74975;BME280;68459;50.836;19.138;2023-07-29T01:47:11;97991.63;;;15.90;79.03
74975;BME280;68459;50.836;19.138;2023-07-29T01:50:15;97996.50;;;15.88;78.95
74975;BME280;68459;50.836;19.138;2023-07-29T01:53:19;98013.91;;;15.87;78.79
74975;BME280;68459;50.836;19.138;2023-07-29T01:56:25;98009.56;;;15.86;78.97
74975;BME280;68459;50.836;19.138;2023-07-29T01:59:30;97999.78;;;15.90;79.28
74975;BME280;68459;50.836;19.138;2023-07-29T02:02:34;98013.09;;;15.92;79.10
74975;BME280;68459;50.836;19.138;2023-07-29T02:05:38;98004.94;;;15.87;78.64
74975;BME280;68459;50.836;19.138;2023-07-29T02:08:42;98012.31;;;15.81;79.22
74975;BME280;68459;50.836;19.138;2023-07-29T02:11:47;98016.66;;;15.77;79.08
74975;BME280;68459;50.836;19.138;2023-07-29T02:14:51;98005.50;;;15.68;79.35
74975;BME280;68459;50.836;19.138;2023-07-29T02:17:55;98008.22;;;15.63;79.01
74975;BME280;68459;50.836;19.138;2023-07-29T02:20:59;98013.66;;;15.58;79.11
74975;BME280;68459;50.836;19.138;2023-07-29T02:24:03;98005.78;;;15.57;79.14
74975;BME280;68459;50.836;19.138;2023-07-29T02:27:09;98017.47;;;15.57;79.81
74975;BME280;68459;50.836;19.138;2023-07-29T02:30:13;98017.47;;;15.57;79.51
74975;BME280;68459;50.836;19.138;2023-07-29T02:33:17;98009.59;;;15.56;79.66
74975;BME280;68459;50.836;19.138;2023-07-29T02:36:21;98014.72;;;15.52;79.22
74975;BME280;68459;50.836;19.138;2023-07-29T02:39:30;98018.53;;;15.51;79.31
74975;BME280;68459;50.836;19.138;2023-07-29T02:42:35;98022.31;;;15.45;79.26
74975;BME280;68459;50.836;19.138;2023-07-29T02:45:41;98028.28;;;15.37;79.17
74975;BME280;68459;50.836;19.138;2023-07-29T02:48:44;98023.38;;;15.34;79.80
74975;BME280;68459;50.836;19.138;2023-07-29T02:51:48;98021.50;;;15.29;79.74
74975;BME280;68459;50.836;19.138;2023-07-29T02:54:52;98035.34;;;15.28;79.57
74975;BME280;68459;50.836;19.138;2023-07-29T02:57:58;98029.63;;;15.24;79.94
74975;BME280;68459;50.836;19.138;2023-07-29T03:01:01;98030.97;;;15.22;79.89
74975;BME280;68459;50.836;19.138;2023-07-29T03:04:06;98027.44;;;15.21;79.77
74975;BME280;68459;50.836;19.138;2023-07-29T03:07:10;98031.25;;;15.25;80.03
74975;BME280;68459;50.836;19.138;2023-07-29T03:10:16;98031.53;;;15.29;79.67
74975;BME280;68459;50.836;19.138;2023-07-29T03:13:21;98032.63;;;15.28;79.98
74975;BME280;68459;50.836;19.138;2023-07-29T03:16:25;98035.06;;;15.24;79.34
74975;BME280;68459;50.836;19.138;2023-07-29T03:19:31;98042.66;;;15.22;79.86
74975;BME280;68459;50.836;19.138;2023-07-29T03:22:35;98045.66;;;15.26;80.00
74975;BME280;68459;50.836;19.138;2023-07-29T03:25:39;98045.41;;;15.27;79.50
74975;BME280;68459;50.836;19.138;2023-07-29T03:28:44;98045.13;;;15.29;79.92
74975;BME280;68459;50.836;19.138;2023-07-29T03:31:48;98045.38;;;15.32;79.64
74975;BME280;68459;50.836;19.138;2023-07-29T03:34:52;98048.91;;;15.33;79.81
74975;BME280;68459;50.836;19.138;2023-07-29T03:37:56;98048.69;;;15.40;79.58
74975;BME280;68459;50.836;19.138;2023-07-29T03:41:00;98038.63;;;15.45;79.61
74975;BME280;68459;50.836;19.138;2023-07-29T03:44:06;98041.09;;;15.52;79.38
74975;BME280;68459;50.836;19.138;2023-07-29T03:47:11;98041.13;;;15.62;79.81
74975;BME280;68459;50.836;19.138;2023-07-29T03:50:17;98043.84;;;15.67;79.24
74975;BME280;68459;50.836;19.138;2023-07-29T03:53:21;98041.91;;;15.73;79.02
74975;BME280;68459;50.836;19.138;2023-07-29T03:56:24;98051.47;;;15.80;78.86
74975;BME280;68459;50.836;19.138;2023-07-29T03:59:30;98046.00;;;15.85;79.29
74975;BME280;68459;50.836;19.138;2023-07-29T04:02:34;98043.28;;;15.90;79.13
74975;BME280;68459;50.836;19.138;2023-07-29T04:05:40;98043.28;;;15.90;78.92
74975;BME280;68459;50.836;19.138;2023-07-29T04:08:44;98053.63;;;15.93;79.02
74975;BME280;68459;50.836;19.138;2023-07-29T04:11:48;98049.56;;;15.96;78.46
74975;BME280;68459;50.836;19.138;2023-07-29T04:14:53;98058.78;;;16.05;79.09
74975;BME280;68459;50.836;19.138;2023-07-29T04:17:57;98061.22;;;16.12;78.71
74975;BME280;68459;50.836;19.138;2023-07-29T04:21:01;98058.22;;;16.18;78.24
74975;BME280;68459;50.836;19.138;2023-07-29T04:24:05;98074.56;;;16.23;78.75
74975;BME280;68459;50.836;19.138;2023-07-29T04:27:08;98065.56;;;16.28;78.23
74975;BME280;68459;50.836;19.138;2023-07-29T04:30:14;98069.91;;;16.34;78.38
74975;BME280;68459;50.836;19.138;2023-07-29T04:33:18;98060.63;;;16.40;77.93
74975;BME280;68459;50.836;19.138;2023-07-29T04:36:22;98071.25;;;16.47;78.06
74975;BME280;68459;50.836;19.138;2023-07-29T04:39:26;98067.66;;;16.56;78.00
74975;BME280;68459;50.836;19.138;2023-07-29T04:42:30;98069.06;;;16.64;77.64
74975;BME280;68459;50.836;19.138;2023-07-29T04:45:35;98064.38;;;16.74;77.95
74975;BME280;68459;50.836;19.138;2023-07-29T04:48:39;98067.06;;;16.85;77.74
74975;BME280;68459;50.836;19.138;2023-07-29T04:51:43;98068.38;;;16.97;77.77
74975;BME280;68459;50.836;19.138;2023-07-29T04:54:47;98066.41;;;17.08;77.42
74975;BME280;68459;50.836;19.138;2023-07-29T04:57:51;98069.88;;;17.19;77.14
74975;BME280;68459;50.836;19.138;2023-07-29T05:00:56;98072.88;;;17.27;77.56
74975;BME280;68459;50.836;19.138;2023-07-29T05:04:01;98085.59;;;17.42;77.23
74975;BME280;68459;50.836;19.138;2023-07-29T05:07:05;98087.16;;;17.53;77.32
74975;BME280;68459;50.836;19.138;2023-07-29T05:10:09;98079.47;;;17.65;77.07
74975;BME280;68459;50.836;19.138;2023-07-29T05:13:13;98081.84;;;17.77;76.71
74975;BME280;68459;50.836;19.138;2023-07-29T05:16:19;98079.84;;;17.88;76.99
74975;BME280;68459;50.836;19.138;2023-07-29T05:19:23;98089.56;;;17.99;76.55
74975;BME280;68459;50.836;19.138;2023-07-29T05:22:27;98092.78;;;18.06;76.22
74975;BME280;68459;50.836;19.138;2023-07-29T05:25:31;98094.38;;;18.12;76.27
74975;BME280;68459;50.836;19.138;2023-07-29T05:28:36;98097.31;;;18.21;76.29
74975;BME280;68459;50.836;19.138;2023-07-29T05:31:41;98095.03;;;18.28;76.14
74975;BME280;68459;50.836;19.138;2023-07-29T05:34:45;98100.72;;;18.36;75.88
74975;BME280;68459;50.836;19.138;2023-07-29T05:37:49;98098.16;;;18.45;75.82
74975;BME280;68459;50.836;19.138;2023-07-29T05:40:53;98107.94;;;18.51;75.96
74975;BME280;68459;50.836;19.138;2023-07-29T05:43:57;98103.25;;;18.57;75.42
74975;BME280;68459;50.836;19.138;2023-07-29T05:47:02;98108.91;;;18.65;75.52
74975;BME280;68459;50.836;19.138;2023-07-29T05:50:07;98108.00;;;18.75;75.35
74975;BME280;68459;50.836;19.138;2023-07-29T05:53:12;98107.88;;;18.85;74.97
74975;BME280;68459;50.836;19.138;2023-07-29T05:56:16;98103.91;;;18.96;74.93
74975;BME280;68459;50.836;19.138;2023-07-29T05:59:20;98106.25;;;19.08;74.86
74975;BME280;68459;50.836;19.138;2023-07-29T06:02:27;98112.38;;;19.18;74.58
74975;BME280;68459;50.836;19.138;2023-07-29T06:05:30;98105.19;;;19.28;74.36
74975;BME280;68459;50.836;19.138;2023-07-29T06:08:34;98108.59;;;19.38;74.09
74975;BME280;68459;50.836;19.138;2023-07-29T06:11:38;98111.47;;;19.47;73.83
74975;BME280;68459;50.836;19.138;2023-07-29T06:14:42;98110.84;;;19.55;74.04
74975;BME280;68459;50.836;19.138;2023-07-29T06:17:47;98118.97;;;19.60;73.74
74975;BME280;68459;50.836;19.138;2023-07-29T06:20:51;98124.69;;;19.64;73.47
74975;BME280;68459;50.836;19.138;2023-07-29T06:23:55;98115.88;;;19.67;73.42
74975;BME280;68459;50.836;19.138;2023-07-29T06:26:59;98117.72;;;19.71;73.48
74975;BME280;68459;50.836;19.138;2023-07-29T06:30:02;98119.00;;;19.79;73.14
74975;BME280;68459;50.836;19.138;2023-07-29T06:33:08;98124.41;;;19.84;72.87
74975;BME280;68459;50.836;19.138;2023-07-29T06:36:12;98122.38;;;19.89;72.67
74975;BME280;68459;50.836;19.138;2023-07-29T06:39:16;98125.25;;;19.98;72.49
74975;BME280;68459;50.836;19.138;2023-07-29T06:42:20;98121.03;;;20.06;71.90
74975;BME280;68459;50.836;19.138;2023-07-29T06:45:24;98128.03;;;20.12;71.80
74975;BME280;68459;50.836;19.138;2023-07-29T06:48:29;98121.91;;;20.20;71.43
74975;BME280;68459;50.836;19.138;2023-07-29T06:51:33;98126.97;;;20.26;71.32
74975;BME280;68459;50.836;19.138;2023-07-29T06:54:37;98122.75;;;20.34;70.85
74975;BME280;68459;50.836;19.138;2023-07-29T06:57:41;98126.47;;;20.43;70.86
74975;BME280;68459;50.836;19.138;2023-07-29T07:00:45;98124.94;;;20.51;70.41
74975;BME280;68459;50.836;19.138;2023-07-29T07:03:50;98121.81;;;20.57;69.82
74975;BME280;68459;50.836;19.138;2023-07-29T07:06:56;98115.63;;;20.66;69.48
74975;BME280;68459;50.836;19.138;2023-07-29T07:10:01;98120.75;;;20.72;69.46
74975;BME280;68459;50.836;19.138;2023-07-29T07:13:04;98124.69;;;20.80;68.98
74975;BME280;68459;50.836;19.138;2023-07-29T07:16:08;98123.50;;;20.86;69.04
74975;BME280;68459;50.836;19.138;2023-07-29T07:19:13;98122.47;;;20.95;68.31
74975;BME280;68459;50.836;19.138;2023-07-29T07:22:17;98125.31;;;21.04;68.18
74975;BME280;68459;50.836;19.138;2023-07-29T07:25:21;98115.88;;;21.10;68.05
74975;BME280;68459;50.836;19.138;2023-07-29T07:28:25;98116.25;;;21.17;67.76
74975;BME280;68459;50.836;19.138;2023-07-29T07:31:33;98121.91;;;21.26;67.46
74975;BME280;68459;50.836;19.138;2023-07-29T07:34:39;98120.66;;;21.32;67.29
74975;BME280;68459;50.836;19.138;2023-07-29T07:37:42;98120.56;;;21.37;67.29
74975;BME280;68459;50.836;19.138;2023-07-29T07:40:52;98106.09;;;21.45;66.40
74975;BME280;68459;50.836;19.138;2023-07-29T07:43:57;98109.56;;;21.51;66.75
74975;BME280;68459;50.836;19.138;2023-07-29T07:47:01;98113.50;;;21.58;66.83
74975;BME280;68459;50.836;19.138;2023-07-29T07:50:08;98116.50;;;21.70;66.33
74975;BME280;68459;50.836;19.138;2023-07-29T07:53:13;98108.78;;;21.73;66.29
74975;BME280;68459;50.836;19.138;2023-07-29T07:56:16;98111.72;;;21.76;66.17
74975;BME280;68459;50.836;19.138;2023-07-29T07:59:20;98114.88;;;21.83;65.92
74975;BME280;68459;50.836;19.138;2023-07-29T08:02:24;98122.16;;;21.88;65.60
74975;BME280;68459;50.836;19.138;2023-07-29T08:08:34;98116.16;;;21.99;65.21
74975;BME280;68459;50.836;19.138;2023-07-29T08:11:38;98117.06;;;22.09;65.27
74975;BME280;68459;50.836;19.138;2023-07-29T08:14:42;98107.25;;;22.16;64.82
74975;BME280;68459;50.836;19.138;2023-07-29T08:17:46;98099.38;;;22.23;64.68
74975;BME280;68459;50.836;19.138;2023-07-29T08:20:54;98103.09;;;22.27;63.83
74975;BME280;68459;50.836;19.138;2023-07-29T08:24:00;98099.75;;;22.30;64.30
74975;BME280;68459;50.836;19.138;2023-07-29T08:27:05;98102.06;;;22.37;64.24
74975;BME280;68459;50.836;19.138;2023-07-29T08:30:10;98101.91;;;22.42;64.04
74975;BME280;68459;50.836;19.138;2023-07-29T08:33:14;98100.16;;;22.46;63.87
74975;BME280;68459;50.836;19.138;2023-07-29T08:36:19;98096.13;;;22.52;63.40
74975;BME280;68459;50.836;19.138;2023-07-29T08:39:24;98095.91;;;22.62;63.41
74975;BME280;68459;50.836;19.138;2023-07-29T08:42:29;98088.50;;;22.71;63.01
74975;BME280;68459;50.836;19.138;2023-07-29T08:45:35;98099.53;;;22.80;62.73
74975;BME280;68459;50.836;19.138;2023-07-29T08:48:40;98100.72;;;22.88;62.38
74975;BME280;68459;50.836;19.138;2023-07-29T08:51:47;98093.78;;;22.90;62.31
74975;BME280;68459;50.836;19.138;2023-07-29T08:54:52;98085.56;;;22.99;62.32
74975;BME280;68459;50.836;19.138;2023-07-29T08:57:57;98093.50;;;23.09;62.24
74975;BME280;68459;50.836;19.138;2023-07-29T09:01:01;98084.00;;;23.15;62.18
74975;BME280;68459;50.836;19.138;2023-07-29T09:04:05;98087.06;;;23.22;62.12
74975;BME280;68459;50.836;19.138;2023-07-29T09:07:10;98083.06;;;23.28;61.71
74975;BME280;68459;50.836;19.138;2023-07-29T09:10:15;98088.88;;;23.35;61.80
74975;BME280;68459;50.836;19.138;2023-07-29T09:13:19;98082.75;;;23.38;61.49
74975;BME280;68459;50.836;19.138;2023-07-29T09:16:23;98077.09;;;23.43;61.46
74975;BME280;68459;50.836;19.138;2023-07-29T09:19:27;98077.13;;;23.52;61.22
74975;BME280;68459;50.836;19.138;2023-07-29T09:22:34;98076.97;;;23.66;60.63
74975;BME280;68459;50.836;19.138;2023-07-29T09:25:39;98065.16;;;23.74;60.53
74975;BME280;68459;50.836;19.138;2023-07-29T09:28:42;98073.06;;;23.84;60.37
74975;BME280;68459;50.836;19.138;2023-07-29T09:31:46;98068.72;;;23.92;59.23
74975;BME280;68459;50.836;19.138;2023-07-29T09:34:51;98080.84;;;23.99;58.39
74975;BME280;68459;50.836;19.138;2023-07-29T09:37:56;98077.13;;;24.12;58.27
74975;BME280;68459;50.836;19.138;2023-07-29T09:41:00;98071.78;;;24.25;58.46
74975;BME280;68459;50.836;19.138;2023-07-29T09:44:04;98067.03;;;24.42;58.33
74975;BME280;68459;50.836;19.138;2023-07-29T09:47:08;98067.31;;;24.58;57.63
74975;BME280;68459;50.836;19.138;2023-07-29T09:50:12;98068.56;;;24.69;57.03
74975;BME280;68459;50.836;19.138;2023-07-29T09:53:17;98067.13;;;24.72;56.88
74975;BME280;68459;50.836;19.138;2023-07-29T09:56:24;98059.66;;;24.72;56.79
74975;BME280;68459;50.836;19.138;2023-07-29T09:59:33;98062.06;;;24.74;55.97
74975;BME280;68459;50.836;19.138;2023-07-29T10:02:39;98051.38;;;24.72;56.63
74975;BME280;68459;50.836;19.138;2023-07-29T10:45:24;98023.19;;;25.46;53.82
74975;BME280;68459;50.836;19.138;2023-07-29T10:48:41;98028.75;;;25.67;51.51
74975;BME280;68459;50.836;19.138;2023-07-29T10:51:46;98023.63;;;25.78;52.83
74975;BME280;68459;50.836;19.138;2023-07-29T10:54:54;98029.69;;;25.92;52.24
74975;BME280;68459;50.836;19.138;2023-07-29T10:58:08;98017.19;;;26.07;51.11
74975;BME280;68459;50.836;19.138;2023-07-29T11:01:26;98026.53;;;26.14;51.15
74975;BME280;68459;50.836;19.138;2023-07-29T11:04:30;98021.13;;;26.18;51.70
74975;BME280;68459;50.836;19.138;2023-07-29T11:07:45;98029.00;;;25.95;51.18
74975;BME280;68459;50.836;19.138;2023-07-29T11:11:02;98024.97;;;25.72;51.76
74975;BME280;68459;50.836;19.138;2023-07-29T11:14:11;98026.53;;;25.81;51.92
74975;BME280;68459;50.836;19.138;2023-07-29T11:17:16;98012.44;;;25.95;51.72
74975;BME280;68459;50.836;19.138;2023-07-29T11:20:22;98017.53;;;26.05;50.64
74975;BME280;68459;50.836;19.138;2023-07-29T11:23:31;98018.66;;;26.04;50.26
74975;BME280;68459;50.836;19.138;2023-07-29T11:26:37;98022.47;;;26.12;50.01
74975;BME280;68459;50.836;19.138;2023-07-29T11:29:42;98019.41;;;26.25;49.66
74975;BME280;68459;50.836;19.138;2023-07-29T11:32:46;98010.03;;;26.51;49.38
74975;BME280;68459;50.836;19.138;2023-07-29T11:35:51;98004.75;;;26.82;49.00
74975;BME280;68459;50.836;19.138;2023-07-29T11:38:55;97994.38;;;27.04;48.78
74975;BME280;68459;50.836;19.138;2023-07-29T11:41:59;97992.88;;;27.18;48.53
74975;BME280;68459;50.836;19.138;2023-07-29T11:45:05;98005.31;;;27.37;48.27
74975;BME280;68459;50.836;19.138;2023-07-29T11:48:10;97991.88;;;27.51;48.13
74975;BME280;68459;50.836;19.138;2023-07-29T11:51:14;97969.31;;;27.77;47.86
74975;BME280;68459;50.836;19.138;2023-07-29T11:54:18;97982.75;;;28.18;47.46
74975;BME280;68459;50.836;19.138;2023-07-29T11:57:24;97985.28;;;28.55;46.36
74975;BME280;68459;50.836;19.138;2023-07-29T12:00:29;97987.59;;;28.68;46.33
74975;BME280;68459;50.836;19.138;2023-07-29T12:03:33;97978.38;;;28.64;46.66
74975;BME280;68459;50.836;19.138;2023-07-29T12:06:38;97971.06;;;28.72;46.39
74975;BME280;68459;50.836;19.138;2023-07-29T12:09:43;97975.00;;;28.71;45.93
74975;BME280;68459;50.836;19.138;2023-07-29T12:12:48;97968.28;;;28.56;46.04
74975;BME280;68459;50.836;19.138;2023-07-29T12:16:01;97964.97;;;28.51;46.18
74975;BME280;68459;50.836;19.138;2023-07-29T12:19:04;97972.31;;;28.59;45.74
74975;BME280;68459;50.836;19.138;2023-07-29T12:22:10;97966.22;;;28.69;45.62
74975;BME280;68459;50.836;19.138;2023-07-29T12:25:14;97965.16;;;28.89;45.16
74975;BME280;68459;50.836;19.138;2023-07-29T12:28:18;97966.44;;;29.11;44.77
74975;BME280;68459;50.836;19.138;2023-07-29T12:31:32;97966.53;;;29.34;44.13
74975;BME280;68459;50.836;19.138;2023-07-29T12:34:37;97946.19;;;29.30;44.52
74975;BME280;68459;50.836;19.138;2023-07-29T12:37:42;97945.63;;;29.56;43.97
74975;BME280;68459;50.836;19.138;2023-07-29T12:40:46;97943.19;;;29.54;43.91
74975;BME280;68459;50.836;19.138;2023-07-29T12:43:49;97931.59;;;29.71;44.00
74975;BME280;68459;50.836;19.138;2023-07-29T12:46:54;97942.06;;;29.97;43.31
74975;BME280;68459;50.836;19.138;2023-07-29T12:49:58;97943.59;;;29.95;42.60
74975;BME280;68459;50.836;19.138;2023-07-29T12:53:03;97930.56;;;29.99;42.77
74975;BME280;68459;50.836;19.138;2023-07-29T12:56:07;97928.69;;;30.03;42.53
74975;BME280;68459;50.836;19.138;2023-07-29T12:59:11;97930.53;;;30.18;42.31
74975;BME280;68459;50.836;19.138;2023-07-29T13:02:16;97930.13;;;30.62;41.33
74975;BME280;68459;50.836;19.138;2023-07-29T13:05:21;97936.09;;;31.13;40.35
74975;BME280;68459;50.836;19.138;2023-07-29T13:08:25;97923.94;;;32.73;38.80
74975;BME280;68459;50.836;19.138;2023-07-29T13:11:29;97930.25;;;36.19;34.55
74975;BME280;68459;50.836;19.138;2023-07-29T13:14:34;97933.75;;;39.22;30.44
74975;BME280;68459;50.836;19.138;2023-07-29T13:17:40;97945.16;;;39.78;28.31
74975;BME280;68459;50.836;19.138;2023-07-29T13:20:44;97941.38;;;40.04;28.74
74975;BME280;68459;50.836;19.138;2023-07-29T13:23:47;97929.59;;;39.07;28.91
74975;BME280;68459;50.836;19.138;2023-07-29T13:26:51;97929.97;;;38.08;30.47
74975;BME280;68459;50.836;19.138;2023-07-29T13:29:55;97916.31;;;39.27;29.17
74975;BME280;68459;50.836;19.138;2023-07-29T13:33:00;97918.22;;;41.68;27.45
74975;BME280;68459;50.836;19.138;2023-07-29T13:36:05;97925.75;;;44.42;24.87
74975;BME280;68459;50.836;19.138;2023-07-29T13:39:10;97934.06;;;44.27;23.72
74975;BME280;68459;50.836;19.138;2023-07-29T13:42:14;97917.09;;;40.59;26.98
74975;BME280;68459;50.836;19.138;2023-07-29T13:45:19;97898.06;;;41.37;26.64
74975;BME280;68459;50.836;19.138;2023-07-29T13:48:24;97908.75;;;43.11;24.57
74975;BME280;68459;50.836;19.138;2023-07-29T13:51:28;97915.34;;;42.60;24.43
74975;BME280;68459;50.836;19.138;2023-07-29T13:54:32;97900.78;;;41.82;25.22
74975;BME280;68459;50.836;19.138;2023-07-29T13:57:37;97901.00;;;40.56;26.20
74975;BME280;68459;50.836;19.138;2023-07-29T14:00:42;97900.59;;;38.06;28.73
74975;BME280;68459;50.836;19.138;2023-07-29T14:03:47;97879.88;;;35.91;31.05
74975;BME280;68459;50.836;19.138;2023-07-29T14:06:51;97889.06;;;34.65;33.12
74975;BME280;68459;50.836;19.138;2023-07-29T14:10:00;97878.66;;;34.73;32.89
74975;BME280;68459;50.836;19.138;2023-07-29T14:13:04;97869.56;;;35.66;31.74
74975;BME280;68459;50.836;19.138;2023-07-29T14:16:08;97880.88;;;35.45;30.76
74975;BME280;68459;50.836;19.138;2023-07-29T14:19:14;97873.81;;;34.91;31.66
74975;BME280;68459;50.836;19.138;2023-07-29T14:22:18;97877.44;;;34.63;31.63
74975;BME280;68459;50.836;19.138;2023-07-29T14:25:22;97854.47;;;33.44;33.21
74975;BME280;68459;50.836;19.138;2023-07-29T14:28:26;97856.09;;;32.25;34.67
74975;BME280;68459;50.836;19.138;2023-07-29T14:31:30;97860.13;;;31.20;36.02
74975;BME280;68459;50.836;19.138;2023-07-29T14:34:36;97858.44;;;30.32;37.23
74975;BME280;68459;50.836;19.138;2023-07-29T14:37:40;97854.09;;;29.89;38.14
74975;BME280;68459;50.836;19.138;2023-07-29T14:40:44;97847.06;;;29.95;38.63
74975;BME280;68459;50.836;19.138;2023-07-29T14:43:51;97838.50;;;29.85;38.64
74975;BME280;68459;50.836;19.138;2023-07-29T14:46:55;97842.25;;;29.69;38.97
74975;BME280;68459;50.836;19.138;2023-07-29T14:50:00;97837.13;;;29.52;39.42
74975;BME280;68459;50.836;19.138;2023-07-29T14:53:04;97833.50;;;29.29;39.09
74975;BME280;68459;50.836;19.138;2023-07-29T14:56:08;97836.03;;;28.99;39.46
74975;BME280;68459;50.836;19.138;2023-07-29T14:59:12;97837.50;;;28.93;40.15
74975;BME280;68459;50.836;19.138;2023-07-29T15:02:16;97834.78;;;29.35;39.25
74975;BME280;68459;50.836;19.138;2023-07-29T15:05:22;97833.59;;;29.97;38.37
74975;BME280;68459;50.836;19.138;2023-07-29T15:08:26;97838.28;;;29.93;37.86
74975;BME280;68459;50.836;19.138;2023-07-29T15:11:31;97845.09;;;29.96;37.27
74975;BME280;68459;50.836;19.138;2023-07-29T15:14:35;97830.72;;;30.39;36.86
74975;BME280;68459;50.836;19.138;2023-07-29T15:17:39;97842.72;;;31.30;35.78
74975;BME280;68459;50.836;19.138;2023-07-29T15:20:45;97847.88;;;33.01;33.83
74975;BME280;68459;50.836;19.138;2023-07-29T15:23:49;97844.63;;;33.92;32.84
74975;BME280;68459;50.836;19.138;2023-07-29T15:26:53;97854.91;;;35.16;31.69
74975;BME280;68459;50.836;19.138;2023-07-29T15:29:56;97864.84;;;35.46;30.95
74975;BME280;68459;50.836;19.138;2023-07-29T15:33:01;97864.25;;;34.17;32.16
74975;BME280;68459;50.836;19.138;2023-07-29T15:36:06;97850.72;;;33.11;34.02
74975;BME280;68459;50.836;19.138;2023-07-29T15:39:10;97845.44;;;32.37;34.94
74975;BME280;68459;50.836;19.138;2023-07-29T15:42:14;97836.63;;;31.87;35.86
74975;BME280;68459;50.836;19.138;2023-07-29T15:45:18;97842.00;;;31.66;36.41
74975;BME280;68459;50.836;19.138;2023-07-29T15:48:26;97831.09;;;31.58;36.56
74975;BME280;68459;50.836;19.138;2023-07-29T15:51:32;97832.88;;;31.69;36.59
74975;BME280;68459;50.836;19.138;2023-07-29T15:54:36;97831.78;;;32.80;35.87
74975;BME280;68459;50.836;19.138;2023-07-29T15:57:40;97832.75;;;33.09;35.05
74975;BME280;68459;50.836;19.138;2023-07-29T16:00:44;97844.56;;;32.81;35.50
74975;BME280;68459;50.836;19.138;2023-07-29T16:03:48;97824.75;;;31.98;36.59
74975;BME280;68459;50.836;19.138;2023-07-29T16:06:53;97818.69;;;31.14;37.72
74975;BME280;68459;50.836;19.138;2023-07-29T16:09:57;97826.00;;;30.43;38.59
74975;BME280;68459;50.836;19.138;2023-07-29T16:13:01;97813.66;;;29.72;40.14
74975;BME280;68459;50.836;19.138;2023-07-29T16:16:07;97810.81;;;29.07;41.09
74975;BME280;68459;50.836;19.138;2023-07-29T16:19:11;97810.47;;;28.55;41.92
74975;BME280;68459;50.836;19.138;2023-07-29T16:22:17;97804.06;;;28.03;43.07
74975;BME280;68459;50.836;19.138;2023-07-29T16:25:20;97802.63;;;27.62;43.45
74975;BME280;68459;50.836;19.138;2023-07-29T16:28:25;97794.06;;;27.24;44.03
74975;BME280;68459;50.836;19.138;2023-07-29T16:31:29;97789.69;;;26.95;44.76
74975;BME280;68459;50.836;19.138;2023-07-29T16:34:33;97789.16;;;26.65;45.23
74975;BME280;68459;50.836;19.138;2023-07-29T16:37:38;97789.69;;;26.43;45.93
74975;BME280;68459;50.836;19.138;2023-07-29T16:40:42;97787.50;;;26.24;46.39
74975;BME280;68459;50.836;19.138;2023-07-29T16:44:06;97790.19;;;26.08;46.63
74975;BME280;68459;50.836;19.138;2023-07-29T16:47:10;97777.59;;;25.99;46.83
74975;BME280;68459;50.836;19.138;2023-07-29T16:50:14;97776.81;;;25.86;46.96